Time,TemperatureF,DewpointF,PressureIn,WindDirection,WindDirectionDegrees,WindSpeedMPH,WindSpeedGustMPH,Humidity,HourlyPrecipIn,Conditions,Clouds,dailyrainin,SoftwareType,DateUTC
2013-06-26 00:12:00,44.3,28.0,29.93,SSW,207,0.0,1.0,53,0.00,,,0.00,weatherlink.com 1.10,2013-06-26 06:12:00,
2013-06-26 00:27:00,43.3,28.0,29.93,SSW,207,0.0,1.0,56,0.00,,,0.00,weatherlink.com 1.10,2013-06-26 06:27:00,
2013-06-26 00:42:00,42.9,28.0,29.93,SSW,208,0.0,1.0,56,0.00,,,0.00,weatherlink.com 1.10,2013-06-26 06:42:00,
2013-06-26 00:58:00,41.8,28.0,29.94,SSW,208,1.0,1.0,59,0.00,,,0.00,weatherlink.com 1.10,2013-06-26 06:58:00,
2013-06-26 01:12:00,41.4,28.0,29.93,SSW,208,0.0,1.0,60,0.00,,,0.00,weatherlink.com 1.10,2013-06-26 07:12:00,
2013-06-26 01:28:00,41.2,28.0,29.93,SSW,208,0.0,1.0,60,0.00,,,0.00,weatherlink.com 1.10,2013-06-26 07:28:00,
2013-06-26 01:43:00,40.7,28.0,29.94,SSW,208,0.0,1.0,62,0.00,,,0.00,weatherlink.com 1.10,2013-06-26 07:43:00,
2013-06-26 01:58:00,39.9,28.0,29.93,SSW,208,0.0,1.0,62,0.00,,,0.00,weatherlink.com 1.10,2013-06-26 07:58:00,
2013-06-26 02:13:00,39.4,28.0,29.93,SSW,208,0.0,1.0,65,0.00,,,0.00,weatherlink.com 1.10,2013-06-26 08:13:00,
2013-06-26 02:28:00,39.1,28.0,29.93,SSW,209,0.0,1.0,65,0.00,,,0.00,weatherlink.com 1.10,2013-06-26 08:28:00,
2013-06-26 02:43:00,38.8,28.0,29.93,SSW,209,0.0,1.0,65,0.00,,,0.00,weatherlink.com 1.10,2013-06-26 08:43:00,
2013-06-26 02:58:00,38.6,28.0,29.93,WSW,241,0.0,2.0,67,0.00,,,0.00,weatherlink.com 1.10,2013-06-26 08:58:00,
2013-06-26 03:13:00,38.0,28.0,29.93,WSW,240,0.0,1.0,68,0.00,,,0.00,weatherlink.com 1.10,2013-06-26 09:13:00,
2013-06-26 03:28:00,37.5,28.0,29.93,WSW,241,0.0,1.0,69,0.00,,,0.00,weatherlink.com 1.10,2013-06-26 09:28:00,
2013-06-26 03:43:00,37.4,28.0,29.94,WSW,241,0.0,1.0,70,0.00,,,0.00,weatherlink.com 1.10,2013-06-26 09:43:00,
2013-06-26 03:58:00,37.3,28.0,29.94,WSW,241,0.0,1.0,70,0.00,,,0.00,weatherlink.com 1.10,2013-06-26 09:58:00,
2013-06-26 04:13:00,36.9,28.0,29.94,WSW,241,0.0,1.0,70,0.00,,,0.00,weatherlink.com 1.10,2013-06-26 10:13:00,
2013-06-26 04:28:00,36.4,28.0,29.95,WSW,241,0.0,1.0,72,0.00,,,0.00,weatherlink.com 1.10,2013-06-26 10:28:00,
2013-06-26 04:43:00,36.1,28.0,29.95,WSW,241,0.0,1.0,72,0.00,,,0.00,weatherlink.com 1.10,2013-06-26 10:43:00,
2013-06-26 04:58:00,35.4,29.0,29.96,WSW,241,0.0,1.0,76,0.00,,,0.00,weatherlink.com 1.10,2013-06-26 10:58:00,
2013-06-26 05:13:00,35.3,28.0,29.96,WSW,241,0.0,1.0,75,0.00,,,0.00,weatherlink.com 1.10,2013-06-26 11:13:00,
2013-06-26 05:28:00,35.3,28.0,29.97,WSW,241,1.0,1.0,75,0.00,,,0.00,weatherlink.com 1.10,2013-06-26 11:28:00,
2013-06-26 05:43:00,35.2,28.0,29.98,WSW,241,0.0,1.0,76,0.00,,,0.00,weatherlink.com 1.10,2013-06-26 11:43:00,
2013-06-26 05:58:00,35.2,29.0,29.98,WSW,241,0.0,1.0,77,0.00,,,0.00,weatherlink.com 1.10,2013-06-26 11:58:00,
2013-06-26 06:13:00,34.9,29.0,30.00,WSW,241,0.0,1.0,78,0.00,,,0.00,weatherlink.com 1.10,2013-06-26 12:13:00,
2013-06-26 06:28:00,34.8,29.0,30.00,WSW,241,0.0,1.0,78,0.00,,,0.00,weatherlink.com 1.10,2013-06-26 12:28:00,
2013-06-26 06:43:00,35.3,29.0,30.00,WSW,241,0.0,1.0,78,0.00,,,0.00,weatherlink.com 1.10,2013-06-26 12:43:00,
2013-06-26 06:58:00,36.5,30.0,30.00,WSW,241,0.0,1.0,77,0.00,,,0.00,weatherlink.com 1.10,2013-06-26 12:58:00,
2013-06-26 07:13:00,38.0,31.0,30.00,WSW,241,0.0,1.0,75,0.00,,,0.00,weatherlink.com 1.10,2013-06-26 13:13:00,
2013-06-26 07:28:00,39.9,32.0,30.01,WSW,240,0.0,1.0,73,0.00,,,0.00,weatherlink.com 1.10,2013-06-26 13:28:00,
2013-06-26 07:44:00,41.6,34.0,30.00,WSW,240,0.0,1.0,73,0.00,,,0.00,weatherlink.com 1.10,2013-06-26 13:44:00,
2013-06-26 07:59:00,44.0,35.0,30.00,WSW,240,0.0,0.0,70,0.00,,,0.00,weatherlink.com 1.10,2013-06-26 13:59:00,
2013-06-26 08:14:00,46.0,34.0,29.99,WSW,240,0.0,0.0,63,0.00,,,0.00,weatherlink.com 1.10,2013-06-26 14:14:00,
2013-06-26 08:29:00,51.4,36.0,29.99,East,83,1.0,2.0,56,0.00,,,0.00,weatherlink.com 1.10,2013-06-26 14:29:00,
2013-06-26 08:44:00,54.9,34.0,29.99,East,91,0.0,3.0,45,0.00,,,0.00,weatherlink.com 1.10,2013-06-26 14:44:00,
2013-06-26 08:59:00,57.5,33.0,29.99,ESE,115,4.0,4.0,40,0.00,,,0.00,weatherlink.com 1.10,2013-06-26 14:59:00,
2013-06-26 09:14:00,58.4,32.0,29.99,East,86,0.0,4.0,37,0.00,,,0.00,weatherlink.com 1.10,2013-06-26 15:14:00,
2013-06-26 09:29:00,60.1,35.0,29.99,East,101,1.0,4.0,39,0.00,,,0.00,weatherlink.com 1.10,2013-06-26 15:29:00,
2013-06-26 09:44:00,62.3,34.0,29.98,ESE,109,1.0,5.0,35,0.00,,,0.00,weatherlink.com 1.10,2013-06-26 15:44:00,
2013-06-26 09:59:00,64.7,35.0,29.98,SE,146,1.0,5.0,33,0.00,,,0.00,weatherlink.com 1.10,2013-06-26 15:59:00,
2013-06-26 10:14:00,66.1,33.0,29.98,ESE,113,4.0,6.0,29,0.00,,,0.00,weatherlink.com 1.10,2013-06-26 16:14:00,
2013-06-26 10:29:00,66.9,35.0,29.98,ESE,114,0.0,10.0,31,0.00,,,0.00,weatherlink.com 1.10,2013-06-26 16:29:00,
2013-06-26 10:44:00,68.5,34.0,29.98,SSE,150,2.0,9.0,28,0.00,,,0.00,weatherlink.com 1.10,2013-06-26 16:44:00,
2013-06-26 10:59:00,69.5,36.0,29.98,East,92,1.0,8.0,29,0.00,,,0.00,weatherlink.com 1.10,2013-06-26 16:59:00,
2013-06-26 11:14:00,70.4,33.0,29.98,ESE,110,7.0,9.0,25,0.00,,,0.00,weatherlink.com 1.10,2013-06-26 17:14:00,
2013-06-26 11:29:00,70.6,34.0,29.98,ESE,108,1.0,12.0,26,0.00,,,0.00,weatherlink.com 1.10,2013-06-26 17:29:00,
2013-06-26 11:44:00,71.1,34.0,29.97,East,85,5.0,9.0,26,0.00,,,0.00,weatherlink.com 1.10,2013-06-26 17:44:00,
2013-06-26 11:59:00,72.2,32.0,29.97,ESE,122,6.0,8.0,23,0.00,,,0.00,weatherlink.com 1.10,2013-06-26 17:59:00,
2013-06-26 12:14:00,72.5,31.0,29.96,East,80,1.0,10.0,22,0.00,,,0.00,weatherlink.com 1.10,2013-06-26 18:14:00,
2013-06-26 12:30:00,73.2,31.0,29.96,ESE,122,6.0,12.0,21,0.00,,,0.00,weatherlink.com 1.10,2013-06-26 18:30:00,
2013-06-26 12:45:00,73.7,31.0,29.96,ESE,115,6.0,14.0,21,0.00,,,0.00,weatherlink.com 1.10,2013-06-26 18:45:00,
2013-06-26 13:00:00,74.8,35.0,29.95,East,91,1.0,9.0,23,0.00,,,0.00,weatherlink.com 1.10,2013-06-26 19:00:00,
2013-06-26 13:15:00,75.9,33.0,29.94,ESE,105,6.0,12.0,21,0.00,,,0.00,weatherlink.com 1.10,2013-06-26 19:15:00,
2013-06-26 13:30:00,75.9,32.0,29.94,ESE,103,1.0,11.0,20,0.00,,,0.00,weatherlink.com 1.10,2013-06-26 19:30:00,
2013-06-26 13:45:00,76.7,30.0,29.93,ESE,105,3.0,13.0,18,0.00,,,0.00,weatherlink.com 1.10,2013-06-26 19:45:00,
2013-06-26 14:00:00,76.7,31.0,29.93,ESE,112,1.0,12.0,19,0.00,,,0.00,weatherlink.com 1.10,2013-06-26 20:00:00,
2013-06-26 14:15:00,76.5,31.0,29.93,South,188,1.0,13.0,19,0.00,,,0.00,weatherlink.com 1.10,2013-06-26 20:15:00,
2013-06-26 14:30:00,76.7,29.0,29.93,East,89,1.0,12.0,17,0.00,,,0.00,weatherlink.com 1.10,2013-06-26 20:30:00,
2013-06-26 14:45:00,77.3,34.0,29.92,SSE,165,0.0,10.0,21,0.00,,,0.00,weatherlink.com 1.10,2013-06-26 20:45:00,
2013-06-26 15:00:00,77.6,37.0,29.92,East,92,6.0,12.0,23,0.00,,,0.00,weatherlink.com 1.10,2013-06-26 21:00:00,
2013-06-26 15:15:00,77.6,29.0,29.91,NNE,18,2.0,12.0,17,0.00,,,0.00,weatherlink.com 1.10,2013-06-26 21:15:00,
2013-06-26 15:30:00,77.9,31.0,29.91,ESE,103,3.0,9.0,18,0.00,,,0.00,weatherlink.com 1.10,2013-06-26 21:30:00,
2013-06-26 15:45:00,78.1,31.0,29.90,ESE,102,0.0,7.0,18,0.00,,,0.00,weatherlink.com 1.10,2013-06-26 21:45:00,
2013-06-26 16:00:00,78.4,33.0,29.90,ESE,103,1.0,12.0,19,0.00,,,0.00,weatherlink.com 1.10,2013-06-26 22:00:00,
2013-06-26 16:15:00,78.1,31.0,29.89,East,89,5.0,18.0,18,0.00,,,0.00,weatherlink.com 1.10,2013-06-26 22:15:00,
2013-06-26 16:30:00,77.7,28.0,29.89,ESE,109,1.0,11.0,16,0.00,,,0.00,weatherlink.com 1.10,2013-06-26 22:30:00,
2013-06-26 16:45:00,77.4,31.0,29.89,East,97,3.0,8.0,18,0.00,,,0.00,weatherlink.com 1.10,2013-06-26 22:45:00,
2013-06-26 17:00:00,77.1,26.0,29.88,ENE,78,4.0,7.0,15,0.00,,,0.00,weatherlink.com 1.10,2013-06-26 23:00:00,
2013-06-26 17:15:00,77.4,28.0,29.88,ESE,103,0.0,7.0,16,0.00,,,0.00,weatherlink.com 1.10,2013-06-26 23:15:00,
2013-06-26 17:30:00,77.1,29.0,29.87,ESE,115,2.0,8.0,17,0.00,,,0.00,weatherlink.com 1.10,2013-06-26 23:30:00,
2013-06-26 17:45:00,77.2,29.0,29.87,ESE,111,8.0,10.0,17,0.00,,,0.00,weatherlink.com 1.10,2013-06-26 23:45:00,
2013-06-26 18:00:00,76.8,26.0,29.86,East,96,3.0,9.0,15,0.00,,,0.00,weatherlink.com 1.10,2013-06-27 00:00:00,
2013-06-26 18:15:00,76.6,29.0,29.86,East,86,0.0,8.0,17,0.00,,,0.00,weatherlink.com 1.10,2013-06-27 00:15:00,
2013-06-26 18:30:00,76.7,31.0,29.86,East,93,5.0,7.0,19,0.00,,,0.00,weatherlink.com 1.10,2013-06-27 00:30:00,
2013-06-26 18:45:00,76.6,33.0,29.87,East,101,0.0,9.0,20,0.00,,,0.00,weatherlink.com 1.10,2013-06-27 00:45:00,
2013-06-26 19:00:00,76.4,28.0,29.87,ESE,105,1.0,8.0,17,0.00,,,0.00,weatherlink.com 1.10,2013-06-27 01:00:00,
2013-06-26 19:15:00,75.9,27.0,29.88,East,101,0.0,9.0,16,0.00,,,0.00,weatherlink.com 1.10,2013-06-27 01:15:00,
2013-06-26 19:30:00,75.1,29.0,29.88,East,89,3.0,7.0,18,0.00,,,0.00,weatherlink.com 1.10,2013-06-27 01:30:00,
2013-06-26 19:45:00,73.2,30.0,29.89,ENE,76,0.0,2.0,20,0.00,,,0.00,weatherlink.com 1.10,2013-06-27 01:45:00,
2013-06-26 20:00:00,70.3,30.0,29.89,ENE,77,0.0,1.0,22,0.00,,,0.00,weatherlink.com 1.10,2013-06-27 02:00:00,
2013-06-26 20:15:00,65.6,31.0,29.89,ENE,77,0.0,1.0,27,0.00,,,0.00,weatherlink.com 1.10,2013-06-27 02:15:00,
2013-06-26 20:30:00,62.6,31.0,29.90,ENE,77,1.0,1.0,30,0.00,,,0.00,weatherlink.com 1.10,2013-06-27 02:30:00,
2013-06-26 20:45:00,59.9,31.0,29.91,ENE,77,0.0,1.0,33,0.00,,,0.00,weatherlink.com 1.10,2013-06-27 02:45:00,
2013-06-26 21:00:00,58.4,31.0,29.92,East,83,0.0,2.0,36,0.00,,,0.00,weatherlink.com 1.10,2013-06-27 03:00:00,
2013-06-26 21:15:00,57.3,31.0,29.93,East,83,0.0,1.0,37,0.00,,,0.00,weatherlink.com 1.10,2013-06-27 03:15:00,
2013-06-26 21:30:00,56.4,30.0,29.94,East,83,0.0,1.0,37,0.00,,,0.00,weatherlink.com 1.10,2013-06-27 03:30:00,
2013-06-26 21:45:00,55.2,30.0,29.95,East,83,1.0,1.0,38,0.00,,,0.00,weatherlink.com 1.10,2013-06-27 03:45:00,
2013-06-26 22:00:00,54.1,31.0,29.96,East,83,0.0,1.0,42,0.00,,,0.00,weatherlink.com 1.10,2013-06-27 04:00:00,
2013-06-26 22:15:00,53.2,30.0,29.97,East,83,0.0,1.0,42,0.00,,,0.00,weatherlink.com 1.10,2013-06-27 04:15:00,
2013-06-26 22:30:00,51.9,30.0,29.97,East,83,0.0,1.0,43,0.00,,,0.00,weatherlink.com 1.10,2013-06-27 04:30:00,
2013-06-26 22:45:00,51.1,30.0,29.98,East,83,1.0,1.0,44,0.00,,,0.00,weatherlink.com 1.10,2013-06-27 04:45:00,
2013-06-26 23:00:00,51.0,30.0,29.98,SSW,212,0.0,2.0,45,0.00,,,0.00,weatherlink.com 1.10,2013-06-27 05:00:00,
2013-06-26 23:15:00,50.6,29.0,29.98,SSW,212,0.0,1.0,44,0.00,,,0.00,weatherlink.com 1.10,2013-06-27 05:15:00,
2013-06-26 23:30:00,49.7,29.0,29.98,SSW,212,1.0,1.0,46,0.00,,,0.00,weatherlink.com 1.10,2013-06-27 05:30:00,
2013-06-26 23:45:00,49.3,30.0,29.98,SW,220,0.0,1.0,47,0.00,,,0.00,weatherlink.com 1.10,2013-06-27 05:45:00,